sensor_id;sensor_type;location;lat;lon;timestamp;P1;durP1;ratioP1;P2;durP2;ratioP2
80104;SDS011;69865;47.648;19.030;2024-02-16T00:00:20;64.63;;;63.23;;
80104;SDS011;69865;47.648;19.030;2024-02-16T00:00:52;61.13;;;60.10;;
80104;SDS011;69865;47.648;19.030;2024-02-16T00:01:25;61.97;;;60.70;;
80104;SDS011;69865;47.648;19.030;2024-02-16T00:01:57;63.10;;;61.73;;
80104;SDS011;69865;47.648;19.030;2024-02-16T00:02:29;66.80;;;65.03;;
80104;SDS011;69865;47.648;19.030;2024-02-16T00:03:01;65.63;;;63.67;;
80104;SDS011;69865;47.648;19.030;2024-02-16T00:03:36;64.27;;;62.37;;
80104;SDS011;69865;47.648;19.030;2024-02-16T00:04:08;65.20;;;63.20;;
80104;SDS011;69865;47.648;19.030;2024-02-16T00:04:40;67.43;;;65.73;;
80104;SDS011;69865;47.648;19.030;2024-02-16T00:05:12;68.27;;;66.47;;
80104;SDS011;69865;47.648;19.030;2024-02-16T00:05:44;66.17;;;64.47;;
80104;SDS011;69865;47.648;19.030;2024-02-16T00:06:17;65.97;;;64.47;;
80104;SDS011;69865;47.648;19.030;2024-02-16T00:06:49;64.60;;;63.17;;
80104;SDS011;69865;47.648;19.030;2024-02-16T00:07:21;66.43;;;64.57;;
80104;SDS011;69865;47.648;19.030;2024-02-16T00:07:54;66.10;;;64.47;;
80104;SDS011;69865;47.648;19.030;2024-02-16T00:08:26;66.63;;;64.87;;
80104;SDS011;69865;47.648;19.030;2024-02-16T00:08:58;66.13;;;64.20;;
80104;SDS011;69865;47.648;19.030;2024-02-16T00:09:30;65.37;;;63.57;;
80104;SDS011;69865;47.648;19.030;2024-02-16T00:10:02;64.20;;;62.83;;
80104;SDS011;69865;47.648;19.030;2024-02-16T00:10:35;66.73;;;64.87;;
80104;SDS011;69865;47.648;19.030;2024-02-16T00:11:07;65.67;;;64.03;;
80104;SDS011;69865;47.648;19.030;2024-02-16T00:11:39;65.77;;;64.33;;
80104;SDS011;69865;47.648;19.030;2024-02-16T00:12:11;64.90;;;63.63;;
80104;SDS011;69865;47.648;19.030;2024-02-16T00:12:43;63.77;;;62.63;;
80104;SDS011;69865;47.648;19.030;2024-02-16T00:13:15;66.97;;;65.67;;
80104;SDS011;69865;47.648;19.030;2024-02-16T00:13:47;67.33;;;65.63;;
80104;SDS011;69865;47.648;19.030;2024-02-16T00:14:22;65.73;;;64.10;;
80104;SDS011;69865;47.648;19.030;2024-02-16T00:14:56;63.63;;;62.13;;
80104;SDS011;69865;47.648;19.030;2024-02-16T00:15:28;66.00;;;64.57;;
80104;SDS011;69865;47.648;19.030;2024-02-16T00:16:00;65.23;;;63.50;;
80104;SDS011;69865;47.648;19.030;2024-02-16T00:16:32;65.00;;;63.07;;
80104;SDS011;69865;47.648;19.030;2024-02-16T00:17:04;64.87;;;63.27;;
80104;SDS011;69865;47.648;19.030;2024-02-16T00:17:36;65.17;;;63.47;;
80104;SDS011;69865;47.648;19.030;2024-02-16T00:18:08;61.90;;;60.73;;
80104;SDS011;69865;47.648;19.030;2024-02-16T00:18:41;62.73;;;61.40;;
80104;SDS011;69865;47.648;19.030;2024-02-16T00:19:13;64.80;;;63.37;;
80104;SDS011;69865;47.648;19.030;2024-02-16T00:19:45;64.13;;;62.83;;
80104;SDS011;69865;47.648;19.030;2024-02-16T00:20:18;63.27;;;61.80;;
80104;SDS011;69865;47.648;19.030;2024-02-16T00:20:50;64.50;;;63.17;;
80104;SDS011;69865;47.648;19.030;2024-02-16T00:21:22;63.87;;;62.47;;
80104;SDS011;69865;47.648;19.030;2024-02-16T00:21:54;64.37;;;63.10;;
80104;SDS011;69865;47.648;19.030;2024-02-16T00:22:26;63.67;;;62.57;;
80104;SDS011;69865;47.648;19.030;2024-02-16T00:22:58;62.37;;;60.90;;
80104;SDS011;69865;47.648;19.030;2024-02-16T00:23:30;62.93;;;60.90;;
80104;SDS011;69865;47.648;19.030;2024-02-16T00:24:02;63.10;;;61.40;;
80104;SDS011;69865;47.648;19.030;2024-02-16T00:24:36;62.60;;;61.00;;
80104;SDS011;69865;47.648;19.030;2024-02-16T00:25:08;63.67;;;61.93;;
80104;SDS011;69865;47.648;19.030;2024-02-16T00:25:40;64.37;;;62.67;;
80104;SDS011;69865;47.648;19.030;2024-02-16T00:26:13;65.43;;;63.77;;
80104;SDS011;69865;47.648;19.030;2024-02-16T00:26:45;64.67;;;63.03;;
80104;SDS011;69865;47.648;19.030;2024-02-16T00:27:17;64.50;;;62.90;;
80104;SDS011;69865;47.648;19.030;2024-02-16T00:27:49;63.00;;;61.63;;
80104;SDS011;69865;47.648;19.030;2024-02-16T00:28:21;62.37;;;60.77;;
80104;SDS011;69865;47.648;19.030;2024-02-16T00:28:53;61.53;;;60.10;;
80104;SDS011;69865;47.648;19.030;2024-02-16T00:29:25;62.27;;;60.70;;
80104;SDS011;69865;47.648;19.030;2024-02-16T00:29:59;62.70;;;60.97;;
80104;SDS011;69865;47.648;19.030;2024-02-16T00:30:31;62.10;;;60.73;;
80104;SDS011;69865;47.648;19.030;2024-02-16T00:31:03;62.57;;;61.33;;
80104;SDS011;69865;47.648;19.030;2024-02-16T00:31:38;61.23;;;60.07;;
80104;SDS011;69865;47.648;19.030;2024-02-16T00:32:12;63.77;;;62.10;;
80104;SDS011;69865;47.648;19.030;2024-02-16T00:32:45;64.73;;;63.30;;
80104;SDS011;69865;47.648;19.030;2024-02-16T00:33:18;64.93;;;63.03;;
80104;SDS011;69865;47.648;19.030;2024-02-16T00:33:53;64.20;;;62.47;;
80104;SDS011;69865;47.648;19.030;2024-02-16T00:34:26;65.33;;;63.60;;
80104;SDS011;69865;47.648;19.030;2024-02-16T00:34:58;64.73;;;62.47;;
80104;SDS011;69865;47.648;19.030;2024-02-16T00:35:34;63.73;;;61.70;;
80104;SDS011;69865;47.648;19.030;2024-02-16T00:36:06;62.83;;;61.33;;
80104;SDS011;69865;47.648;19.030;2024-02-16T00:36:38;63.70;;;62.27;;
80104;SDS011;69865;47.648;19.030;2024-02-16T00:37:10;62.50;;;61.20;;
80104;SDS011;69865;47.648;19.030;2024-02-16T00:37:43;63.13;;;61.80;;
80104;SDS011;69865;47.648;19.030;2024-02-16T00:38:17;64.13;;;62.70;;
80104;SDS011;69865;47.648;19.030;2024-02-16T00:38:49;63.30;;;61.97;;
80104;SDS011;69865;47.648;19.030;2024-02-16T00:39:21;63.43;;;61.93;;
80104;SDS011;69865;47.648;19.030;2024-02-16T00:39:56;64.57;;;62.93;;
80104;SDS011;69865;47.648;19.030;2024-02-16T00:40:28;63.07;;;61.53;;
80104;SDS011;69865;47.648;19.030;2024-02-16T00:41:02;61.20;;;59.90;;
80104;SDS011;69865;47.648;19.030;2024-02-16T00:41:35;61.67;;;60.77;;
80104;SDS011;69865;47.648;19.030;2024-02-16T00:42:09;62.33;;;61.23;;
80104;SDS011;69865;47.648;19.030;2024-02-16T00:42:41;62.47;;;60.90;;
80104;SDS011;69865;47.648;19.030;2024-02-16T00:43:15;63.37;;;61.90;;
80104;SDS011;69865;47.648;19.030;2024-02-16T00:43:47;61.60;;;60.10;;
80104;SDS011;69865;47.648;19.030;2024-02-16T00:44:19;62.23;;;60.67;;
80104;SDS011;69865;47.648;19.030;2024-02-16T00:44:51;62.80;;;61.00;;
80104;SDS011;69865;47.648;19.030;2024-02-16T00:45:25;61.57;;;60.10;;
80104;SDS011;69865;47.648;19.030;2024-02-16T00:45:57;61.47;;;59.93;;
80104;SDS011;69865;47.648;19.030;2024-02-16T00:46:29;63.20;;;61.13;;
80104;SDS011;69865;47.648;19.030;2024-02-16T00:47:01;63.23;;;61.67;;
80104;SDS011;69865;47.648;19.030;2024-02-16T00:47:33;62.73;;;61.40;;
80104;SDS011;69865;47.648;19.030;2024-02-16T00:48:06;62.73;;;61.33;;
80104;SDS011;69865;47.648;19.030;2024-02-16T00:48:38;60.17;;;58.80;;
80104;SDS011;69865;47.648;19.030;2024-02-16T00:49:11;63.03;;;61.33;;
80104;SDS011;69865;47.648;19.030;2024-02-16T00:49:43;60.87;;;59.37;;
80104;SDS011;69865;47.648;19.030;2024-02-16T00:50:15;61.53;;;59.93;;
80104;SDS011;69865;47.648;19.030;2024-02-16T00:50:48;60.80;;;59.40;;
80104;SDS011;69865;47.648;19.030;2024-02-16T00:51:20;60.50;;;59.23;;
80104;SDS011;69865;47.648;19.030;2024-02-16T00:51:52;62.90;;;61.27;;
80104;SDS011;69865;47.648;19.030;2024-02-16T00:52:28;62.80;;;61.63;;
80104;SDS011;69865;47.648;19.030;2024-02-16T00:53:00;62.93;;;61.53;;
80104;SDS011;69865;47.648;19.030;2024-02-16T00:53:34;61.03;;;60.03;;
80104;SDS011;69865;47.648;19.030;2024-02-16T00:54:06;62.73;;;61.87;;
80104;SDS011;69865;47.648;19.030;2024-02-16T00:54:38;64.00;;;62.57;;
80104;SDS011;69865;47.648;19.030;2024-02-16T00:55:10;63.70;;;62.33;;
80104;SDS011;69865;47.648;19.030;2024-02-16T00:55:42;61.40;;;60.40;;
80104;SDS011;69865;47.648;19.030;2024-02-16T00:56:14;63.50;;;61.97;;
80104;SDS011;69865;47.648;19.030;2024-02-16T00:56:46;64.07;;;62.33;;
80104;SDS011;69865;47.648;19.030;2024-02-16T00:57:18;65.43;;;63.70;;
80104;SDS011;69865;47.648;19.030;2024-02-16T00:57:50;64.83;;;63.10;;
80104;SDS011;69865;47.648;19.030;2024-02-16T00:58:23;64.20;;;63.00;;
80104;SDS011;69865;47.648;19.030;2024-02-16T00:58:57;66.70;;;65.20;;
80104;SDS011;69865;47.648;19.030;2024-02-16T00:59:29;68.33;;;66.53;;
80104;SDS011;69865;47.648;19.030;2024-02-16T01:00:01;68.63;;;66.83;;
80104;SDS011;69865;47.648;19.030;2024-02-16T01:00:35;70.30;;;68.53;;
80104;SDS011;69865;47.648;19.030;2024-02-16T01:01:07;67.90;;;66.13;;
80104;SDS011;69865;47.648;19.030;2024-02-16T01:01:39;68.17;;;66.27;;
80104;SDS011;69865;47.648;19.030;2024-02-16T01:02:11;67.73;;;65.80;;
80104;SDS011;69865;47.648;19.030;2024-02-16T01:02:43;66.83;;;64.93;;
80104;SDS011;69865;47.648;19.030;2024-02-16T01:03:17;65.70;;;63.53;;
80104;SDS011;69865;47.648;19.030;2024-02-16T01:03:52;67.77;;;65.50;;
80104;SDS011;69865;47.648;19.030;2024-02-16T01:04:24;66.57;;;64.70;;
80104;SDS011;69865;47.648;19.030;2024-02-16T01:04:56;67.50;;;65.43;;
80104;SDS011;69865;47.648;19.030;2024-02-16T01:05:28;66.53;;;64.50;;
80104;SDS011;69865;47.648;19.030;2024-02-16T01:06:00;64.10;;;62.27;;
80104;SDS011;69865;47.648;19.030;2024-02-16T01:06:35;64.93;;;62.87;;
80104;SDS011;69865;47.648;19.030;2024-02-16T01:07:07;64.10;;;62.57;;
80104;SDS011;69865;47.648;19.030;2024-02-16T01:07:39;65.20;;;63.53;;
80104;SDS011;69865;47.648;19.030;2024-02-16T01:08:11;65.40;;;63.63;;
80104;SDS011;69865;47.648;19.030;2024-02-16T01:08:43;65.57;;;64.00;;
80104;SDS011;69865;47.648;19.030;2024-02-16T01:09:16;65.97;;;64.20;;
80104;SDS011;69865;47.648;19.030;2024-02-16T01:09:48;65.23;;;63.43;;
80104;SDS011;69865;47.648;19.030;2024-02-16T01:10:20;62.70;;;61.23;;
80104;SDS011;69865;47.648;19.030;2024-02-16T01:10:52;62.47;;;60.70;;
80104;SDS011;69865;47.648;19.030;2024-02-16T01:11:24;61.90;;;60.00;;
80104;SDS011;69865;47.648;19.030;2024-02-16T01:11:56;64.37;;;62.47;;
80104;SDS011;69865;47.648;19.030;2024-02-16T01:12:30;64.93;;;63.37;;
80104;SDS011;69865;47.648;19.030;2024-02-16T01:13:05;64.67;;;62.93;;
80104;SDS011;69865;47.648;19.030;2024-02-16T01:13:40;62.63;;;60.80;;
80104;SDS011;69865;47.648;19.030;2024-02-16T01:14:12;63.07;;;61.40;;
80104;SDS011;69865;47.648;19.030;2024-02-16T01:14:44;63.50;;;61.90;;
80104;SDS011;69865;47.648;19.030;2024-02-16T01:15:16;64.13;;;62.77;;
80104;SDS011;69865;47.648;19.030;2024-02-16T01:15:50;64.70;;;63.03;;
80104;SDS011;69865;47.648;19.030;2024-02-16T01:16:22;63.50;;;61.83;;
80104;SDS011;69865;47.648;19.030;2024-02-16T01:16:56;65.20;;;63.00;;
80104;SDS011;69865;47.648;19.030;2024-02-16T01:17:28;65.30;;;63.20;;
80104;SDS011;69865;47.648;19.030;2024-02-16T01:18:00;64.90;;;63.10;;
80104;SDS011;69865;47.648;19.030;2024-02-16T01:18:33;62.53;;;60.93;;
80104;SDS011;69865;47.648;19.030;2024-02-16T01:19:05;62.23;;;60.80;;
80104;SDS011;69865;47.648;19.030;2024-02-16T01:19:37;60.07;;;58.77;;
80104;SDS011;69865;47.648;19.030;2024-02-16T01:20:10;61.67;;;60.03;;
80104;SDS011;69865;47.648;19.030;2024-02-16T01:20:43;63.63;;;61.90;;
80104;SDS011;69865;47.648;19.030;2024-02-16T01:21:15;63.53;;;62.20;;
80104;SDS011;69865;47.648;19.030;2024-02-16T01:21:49;61.17;;;60.23;;
80104;SDS011;69865;47.648;19.030;2024-02-16T01:22:21;59.50;;;58.40;;
80104;SDS011;69865;47.648;19.030;2024-02-16T01:22:53;60.27;;;59.00;;
80104;SDS011;69865;47.648;19.030;2024-02-16T01:23:25;61.20;;;59.90;;
80104;SDS011;69865;47.648;19.030;2024-02-16T01:23:57;63.43;;;61.40;;
80104;SDS011;69865;47.648;19.030;2024-02-16T01:24:29;64.63;;;62.93;;
80104;SDS011;69865;47.648;19.030;2024-02-16T01:25:02;62.80;;;60.97;;
80104;SDS011;69865;47.648;19.030;2024-02-16T01:25:34;63.37;;;61.40;;
80104;SDS011;69865;47.648;19.030;2024-02-16T01:26:06;65.17;;;63.67;;
80104;SDS011;69865;47.648;19.030;2024-02-16T01:26:38;63.60;;;61.97;;
80104;SDS011;69865;47.648;19.030;2024-02-16T01:27:10;63.77;;;62.10;;
80104;SDS011;69865;47.648;19.030;2024-02-16T01:27:42;63.50;;;61.97;;
80104;SDS011;69865;47.648;19.030;2024-02-16T01:28:14;61.93;;;60.57;;
80104;SDS011;69865;47.648;19.030;2024-02-16T01:28:46;62.40;;;60.97;;
80104;SDS011;69865;47.648;19.030;2024-02-16T01:29:18;62.33;;;60.93;;
80104;SDS011;69865;47.648;19.030;2024-02-16T01:29:50;61.57;;;60.27;;
80104;SDS011;69865;47.648;19.030;2024-02-16T01:30:22;62.30;;;60.87;;
80104;SDS011;69865;47.648;19.030;2024-02-16T01:30:56;63.93;;;62.40;;
80104;SDS011;69865;47.648;19.030;2024-02-16T01:31:30;62.87;;;61.07;;
80104;SDS011;69865;47.648;19.030;2024-02-16T01:32:02;64.03;;;62.43;;
80104;SDS011;69865;47.648;19.030;2024-02-16T01:32:35;64.67;;;63.27;;
80104;SDS011;69865;47.648;19.030;2024-02-16T01:33:07;62.33;;;61.03;;
80104;SDS011;69865;47.648;19.030;2024-02-16T01:33:39;59.13;;;58.03;;
80104;SDS011;69865;47.648;19.030;2024-02-16T01:34:12;59.87;;;58.77;;
80104;SDS011;69865;47.648;19.030;2024-02-16T01:34:44;63.83;;;62.37;;
80104;SDS011;69865;47.648;19.030;2024-02-16T01:35:16;63.53;;;62.20;;
80104;SDS011;69865;47.648;19.030;2024-02-16T01:35:48;63.73;;;62.43;;
80104;SDS011;69865;47.648;19.030;2024-02-16T01:36:20;62.93;;;61.53;;
80104;SDS011;69865;47.648;19.030;2024-02-16T01:36:52;61.00;;;59.53;;
80104;SDS011;69865;47.648;19.030;2024-02-16T01:37:24;61.20;;;59.87;;
80104;SDS011;69865;47.648;19.030;2024-02-16T01:37:57;60.77;;;59.30;;
80104;SDS011;69865;47.648;19.030;2024-02-16T01:38:29;62.40;;;60.80;;
80104;SDS011;69865;47.648;19.030;2024-02-16T01:39:01;61.37;;;59.70;;
80104;SDS011;69865;47.648;19.030;2024-02-16T01:39:33;62.63;;;60.93;;
80104;SDS011;69865;47.648;19.030;2024-02-16T01:40:06;64.30;;;62.73;;
80104;SDS011;69865;47.648;19.030;2024-02-16T01:40:38;61.07;;;59.83;;
80104;SDS011;69865;47.648;19.030;2024-02-16T01:41:11;62.13;;;60.97;;
80104;SDS011;69865;47.648;19.030;2024-02-16T01:41:45;62.33;;;60.90;;
80104;SDS011;69865;47.648;19.030;2024-02-16T01:42:19;60.10;;;59.03;;
80104;SDS011;69865;47.648;19.030;2024-02-16T01:42:51;61.40;;;60.30;;
80104;SDS011;69865;47.648;19.030;2024-02-16T01:43:24;60.60;;;59.30;;
80104;SDS011;69865;47.648;19.030;2024-02-16T01:43:56;60.70;;;59.07;;
80104;SDS011;69865;47.648;19.030;2024-02-16T01:44:28;62.47;;;60.80;;
80104;SDS011;69865;47.648;19.030;2024-02-16T01:45:00;61.20;;;59.70;;
80104;SDS011;69865;47.648;19.030;2024-02-16T01:45:32;59.57;;;58.13;;
80104;SDS011;69865;47.648;19.030;2024-02-16T01:46:05;59.73;;;58.50;;
80104;SDS011;69865;47.648;19.030;2024-02-16T01:46:38;61.47;;;59.63;;
80104;SDS011;69865;47.648;19.030;2024-02-16T01:47:11;61.70;;;59.80;;
80104;SDS011;69865;47.648;19.030;2024-02-16T01:47:44;61.93;;;60.17;;
80104;SDS011;69865;47.648;19.030;2024-02-16T01:48:19;63.03;;;61.30;;
80104;SDS011;69865;47.648;19.030;2024-02-16T01:48:51;63.43;;;61.73;;
80104;SDS011;69865;47.648;19.030;2024-02-16T01:49:24;61.00;;;59.60;;
80104;SDS011;69865;47.648;19.030;2024-02-16T01:49:56;61.97;;;60.17;;
80104;SDS011;69865;47.648;19.030;2024-02-16T01:50:29;61.97;;;60.40;;
80104;SDS011;69865;47.648;19.030;2024-02-16T01:51:01;61.53;;;59.80;;
80104;SDS011;69865;47.648;19.030;2024-02-16T01:51:35;61.73;;;59.73;;
80104;SDS011;69865;47.648;19.030;2024-02-16T01:52:07;62.30;;;60.53;;
80104;SDS011;69865;47.648;19.030;2024-02-16T01:52:40;63.53;;;61.87;;
80104;SDS011;69865;47.648;19.030;2024-02-16T01:53:13;63.30;;;61.60;;
80104;SDS011;69865;47.648;19.030;2024-02-16T01:53:47;64.40;;;62.60;;
80104;SDS011;69865;47.648;19.030;2024-02-16T01:54:20;61.97;;;60.50;;
80104;SDS011;69865;47.648;19.030;2024-02-16T01:54:52;63.33;;;61.70;;
80104;SDS011;69865;47.648;19.030;2024-02-16T01:55:24;64.97;;;63.17;;
80104;SDS011;69865;47.648;19.030;2024-02-16T01:55:57;64.13;;;62.60;;
80104;SDS011;69865;47.648;19.030;2024-02-16T01:56:30;63.97;;;62.30;;
80104;SDS011;69865;47.648;19.030;2024-02-16T01:57:03;65.53;;;63.80;;
80104;SDS011;69865;47.648;19.030;2024-02-16T01:57:37;63.63;;;62.03;;
80104;SDS011;69865;47.648;19.030;2024-02-16T01:58:10;63.83;;;62.13;;
80104;SDS011;69865;47.648;19.030;2024-02-16T01:58:43;61.50;;;59.90;;
80104;SDS011;69865;47.648;19.030;2024-02-16T01:59:15;60.27;;;58.87;;
80104;SDS011;69865;47.648;19.030;2024-02-16T01:59:47;60.93;;;59.40;;
80104;SDS011;69865;47.648;19.030;2024-02-16T02:00:22;61.33;;;59.93;;
80104;SDS011;69865;47.648;19.030;2024-02-16T02:00:56;58.97;;;57.37;;
80104;SDS011;69865;47.648;19.030;2024-02-16T02:01:30;59.47;;;57.77;;
80104;SDS011;69865;47.648;19.030;2024-02-16T02:02:02;59.40;;;57.67;;
80104;SDS011;69865;47.648;19.030;2024-02-16T02:02:34;58.50;;;56.43;;
80104;SDS011;69865;47.648;19.030;2024-02-16T02:03:06;58.77;;;57.10;;
80104;SDS011;69865;47.648;19.030;2024-02-16T02:03:39;60.03;;;58.57;;
80104;SDS011;69865;47.648;19.030;2024-02-16T02:04:11;59.63;;;58.33;;
80104;SDS011;69865;47.648;19.030;2024-02-16T02:04:43;59.20;;;58.07;;
80104;SDS011;69865;47.648;19.030;2024-02-16T02:05:16;59.90;;;58.60;;
80104;SDS011;69865;47.648;19.030;2024-02-16T02:05:48;59.57;;;57.73;;
80104;SDS011;69865;47.648;19.030;2024-02-16T02:06:22;61.03;;;59.07;;
80104;SDS011;69865;47.648;19.030;2024-02-16T02:06:55;60.27;;;58.53;;
80104;SDS011;69865;47.648;19.030;2024-02-16T02:07:27;59.17;;;57.77;;
80104;SDS011;69865;47.648;19.030;2024-02-16T02:08:08;57.67;;;56.07;;
80104;SDS011;69865;47.648;19.030;2024-02-16T02:08:40;58.60;;;57.03;;
80104;SDS011;69865;47.648;19.030;2024-02-16T02:09:12;56.17;;;54.73;;
80104;SDS011;69865;47.648;19.030;2024-02-16T02:09:45;54.43;;;53.10;;
80104;SDS011;69865;47.648;19.030;2024-02-16T02:10:18;55.10;;;53.67;;
80104;SDS011;69865;47.648;19.030;2024-02-16T02:10:50;57.33;;;55.70;;
80104;SDS011;69865;47.648;19.030;2024-02-16T02:11:22;56.20;;;55.43;;
80104;SDS011;69865;47.648;19.030;2024-02-16T02:11:55;57.20;;;56.20;;
80104;SDS011;69865;47.648;19.030;2024-02-16T02:12:27;56.37;;;55.07;;
80104;SDS011;69865;47.648;19.030;2024-02-16T02:12:59;56.13;;;54.73;;
80104;SDS011;69865;47.648;19.030;2024-02-16T02:13:31;57.07;;;55.47;;
80104;SDS011;69865;47.648;19.030;2024-02-16T02:14:03;55.37;;;53.80;;
80104;SDS011;69865;47.648;19.030;2024-02-16T02:14:35;54.47;;;52.87;;
80104;SDS011;69865;47.648;19.030;2024-02-16T02:15:11;52.73;;;51.40;;
80104;SDS011;69865;47.648;19.030;2024-02-16T02:15:43;54.63;;;53.07;;
80104;SDS011;69865;47.648;19.030;2024-02-16T02:16:18;53.53;;;52.20;;
80104;SDS011;69865;47.648;19.030;2024-02-16T02:16:53;53.03;;;52.07;;
80104;SDS011;69865;47.648;19.030;2024-02-16T02:17:30;54.50;;;53.40;;
80104;SDS011;69865;47.648;19.030;2024-02-16T02:18:02;55.07;;;53.40;;
80104;SDS011;69865;47.648;19.030;2024-02-16T02:18:34;52.33;;;50.73;;
80104;SDS011;69865;47.648;19.030;2024-02-16T02:19:07;51.83;;;50.47;;
80104;SDS011;69865;47.648;19.030;2024-02-16T02:19:41;51.80;;;50.27;;
80104;SDS011;69865;47.648;19.030;2024-02-16T02:20:13;51.60;;;49.90;;
80104;SDS011;69865;47.648;19.030;2024-02-16T02:20:46;52.93;;;51.40;;
80104;SDS011;69865;47.648;19.030;2024-02-16T02:21:20;51.10;;;49.70;;
80104;SDS011;69865;47.648;19.030;2024-02-16T02:21:52;52.13;;;50.60;;
80104;SDS011;69865;47.648;19.030;2024-02-16T02:22:26;49.30;;;48.13;;
80104;SDS011;69865;47.648;19.030;2024-02-16T02:23:02;49.63;;;48.90;;
80104;SDS011;69865;47.648;19.030;2024-02-16T02:23:40;49.77;;;48.80;;
80104;SDS011;69865;47.648;19.030;2024-02-16T02:24:15;49.73;;;48.57;;
80104;SDS011;69865;47.648;19.030;2024-02-16T02:24:49;50.07;;;49.17;;
80104;SDS011;69865;47.648;19.030;2024-02-16T02:25:21;48.57;;;48.03;;
80104;SDS011;69865;47.648;19.030;2024-02-16T02:25:57;49.87;;;48.73;;
80104;SDS011;69865;47.648;19.030;2024-02-16T02:26:29;47.70;;;46.57;;
80104;SDS011;69865;47.648;19.030;2024-02-16T02:27:02;48.20;;;46.97;;
80104;SDS011;69865;47.648;19.030;2024-02-16T02:27:34;50.77;;;49.50;;
80104;SDS011;69865;47.648;19.030;2024-02-16T02:28:06;50.07;;;48.93;;
80104;SDS011;69865;47.648;19.030;2024-02-16T02:28:38;50.90;;;50.00;;
80104;SDS011;69865;47.648;19.030;2024-02-16T02:29:12;51.10;;;49.90;;
80104;SDS011;69865;47.648;19.030;2024-02-16T02:29:47;49.87;;;48.73;;
80104;SDS011;69865;47.648;19.030;2024-02-16T02:30:19;49.27;;;47.93;;
80104;SDS011;69865;47.648;19.030;2024-02-16T02:30:52;48.83;;;47.50;;
80104;SDS011;69865;47.648;19.030;2024-02-16T02:31:24;46.80;;;45.67;;
80104;SDS011;69865;47.648;19.030;2024-02-16T02:31:56;47.70;;;46.57;;
80104;SDS011;69865;47.648;19.030;2024-02-16T02:32:28;46.43;;;45.33;;
80104;SDS011;69865;47.648;19.030;2024-02-16T02:33:04;47.20;;;45.97;;
80104;SDS011;69865;47.648;19.030;2024-02-16T02:33:36;46.87;;;45.73;;
80104;SDS011;69865;47.648;19.030;2024-02-16T02:34:11;45.90;;;44.83;;
80104;SDS011;69865;47.648;19.030;2024-02-16T02:34:43;44.57;;;43.47;;
80104;SDS011;69865;47.648;19.030;2024-02-16T02:35:19;45.53;;;44.63;;
80104;SDS011;69865;47.648;19.030;2024-02-16T02:35:54;47.13;;;45.73;;
80104;SDS011;69865;47.648;19.030;2024-02-16T02:36:26;46.50;;;44.97;;
80104;SDS011;69865;47.648;19.030;2024-02-16T02:36:58;46.23;;;44.40;;
80104;SDS011;69865;47.648;19.030;2024-02-16T02:37:35;46.30;;;44.97;;
80104;SDS011;69865;47.648;19.030;2024-02-16T02:38:12;45.70;;;44.47;;
80104;SDS011;69865;47.648;19.030;2024-02-16T02:38:44;44.83;;;43.57;;
80104;SDS011;69865;47.648;19.030;2024-02-16T02:39:16;44.77;;;43.67;;
80104;SDS011;69865;47.648;19.030;2024-02-16T02:39:48;41.87;;;41.03;;
80104;SDS011;69865;47.648;19.030;2024-02-16T02:40:25;45.93;;;44.37;;
80104;SDS011;69865;47.648;19.030;2024-02-16T02:40:57;44.27;;;42.87;;
80104;SDS011;69865;47.648;19.030;2024-02-16T02:41:31;43.00;;;41.73;;
80104;SDS011;69865;47.648;19.030;2024-02-16T02:42:03;43.30;;;42.27;;
80104;SDS011;69865;47.648;19.030;2024-02-16T02:42:35;43.00;;;42.37;;
80104;SDS011;69865;47.648;19.030;2024-02-16T02:43:07;42.77;;;42.07;;
80104;SDS011;69865;47.648;19.030;2024-02-16T02:43:39;42.47;;;41.40;;
80104;SDS011;69865;47.648;19.030;2024-02-16T02:44:12;41.67;;;40.33;;
80104;SDS011;69865;47.648;19.030;2024-02-16T02:44:46;41.63;;;40.50;;
80104;SDS011;69865;47.648;19.030;2024-02-16T02:45:19;40.37;;;39.30;;
80104;SDS011;69865;47.648;19.030;2024-02-16T02:45:52;43.17;;;41.93;;
80104;SDS011;69865;47.648;19.030;2024-02-16T02:46:24;43.47;;;42.00;;
80104;SDS011;69865;47.648;19.030;2024-02-16T02:46:57;43.47;;;41.73;;
80104;SDS011;69865;47.648;19.030;2024-02-16T02:47:29;43.10;;;41.50;;
80104;SDS011;69865;47.648;19.030;2024-02-16T02:48:03;43.93;;;42.60;;
80104;SDS011;69865;47.648;19.030;2024-02-16T02:48:36;41.43;;;40.37;;
80104;SDS011;69865;47.648;19.030;2024-02-16T02:49:08;42.30;;;41.13;;
80104;SDS011;69865;47.648;19.030;2024-02-16T02:49:40;40.33;;;39.17;;
80104;SDS011;69865;47.648;19.030;2024-02-16T02:50:18;40.57;;;39.43;;
80104;SDS011;69865;47.648;19.030;2024-02-16T02:50:52;41.23;;;40.10;;
80104;SDS011;69865;47.648;19.030;2024-02-16T02:51:25;42.63;;;41.47;;
80104;SDS011;69865;47.648;19.030;2024-02-16T02:52:04;43.17;;;41.70;;
80104;SDS011;69865;47.648;19.030;2024-02-16T02:52:38;41.53;;;40.17;;
80104;SDS011;69865;47.648;19.030;2024-02-16T02:53:10;40.27;;;39.13;;
80104;SDS011;69865;47.648;19.030;2024-02-16T02:53:42;41.93;;;40.67;;
80104;SDS011;69865;47.648;19.030;2024-02-16T02:54:14;41.17;;;39.83;;
80104;SDS011;69865;47.648;19.030;2024-02-16T02:54:46;41.87;;;40.20;;
80104;SDS011;69865;47.648;19.030;2024-02-16T02:55:18;41.60;;;40.10;;
80104;SDS011;69865;47.648;19.030;2024-02-16T02:55:50;41.57;;;39.97;;
80104;SDS011;69865;47.648;19.030;2024-02-16T02:56:22;40.93;;;39.47;;
80104;SDS011;69865;47.648;19.030;2024-02-16T02:56:54;39.23;;;38.03;;
80104;SDS011;69865;47.648;19.030;2024-02-16T02:57:26;41.07;;;39.63;;
80104;SDS011;69865;47.648;19.030;2024-02-16T02:57:59;42.33;;;40.80;;
80104;SDS011;69865;47.648;19.030;2024-02-16T02:58:31;39.90;;;38.50;;
80104;SDS011;69865;47.648;19.030;2024-02-16T02:59:03;40.00;;;38.87;;
80104;SDS011;69865;47.648;19.030;2024-02-16T02:59:35;40.17;;;39.03;;
80104;SDS011;69865;47.648;19.030;2024-02-16T03:00:09;38.80;;;37.73;;
80104;SDS011;69865;47.648;19.030;2024-02-16T03:00:41;37.47;;;36.40;;
80104;SDS011;69865;47.648;19.030;2024-02-16T03:01:16;38.33;;;37.17;;
80104;SDS011;69865;47.648;19.030;2024-02-16T03:01:48;38.80;;;37.53;;
80104;SDS011;69865;47.648;19.030;2024-02-16T03:02:20;39.37;;;37.87;;
80104;SDS011;69865;47.648;19.030;2024-02-16T03:02:52;39.37;;;38.00;;
80104;SDS011;69865;47.648;19.030;2024-02-16T03:03:25;40.70;;;39.30;;
80104;SDS011;69865;47.648;19.030;2024-02-16T03:03:57;38.73;;;37.67;;
80104;SDS011;69865;47.648;19.030;2024-02-16T03:04:29;38.90;;;37.77;;
80104;SDS011;69865;47.648;19.030;2024-02-16T03:05:01;39.03;;;37.50;;
80104;SDS011;69865;47.648;19.030;2024-02-16T03:05:33;42.03;;;40.43;;
80104;SDS011;69865;47.648;19.030;2024-02-16T03:06:08;40.27;;;38.87;;
80104;SDS011;69865;47.648;19.030;2024-02-16T03:06:40;39.63;;;38.70;;
80104;SDS011;69865;47.648;19.030;2024-02-16T03:07:12;39.30;;;38.20;;
80104;SDS011;69865;47.648;19.030;2024-02-16T03:07:46;40.83;;;39.50;;
80104;SDS011;69865;47.648;19.030;2024-02-16T03:08:23;38.40;;;37.40;;
80104;SDS011;69865;47.648;19.030;2024-02-16T03:08:55;38.90;;;37.53;;